sensor_id;sensor_type;location;lat;lon;timestamp;temperature;humidity
57552;DHT22;43379;48.160;14.036;2022-10-30T00:01:59;11.60;99.90
57552;DHT22;43379;48.160;14.036;2022-10-30T00:04:25;11.60;99.90
57552;DHT22;43379;48.160;14.036;2022-10-30T00:06:51;11.60;99.90
57552;DHT22;43379;48.160;14.036;2022-10-30T00:09:16;11.70;99.90
57552;DHT22;43379;48.160;14.036;2022-10-30T00:11:42;11.60;99.90
57552;DHT22;43379;48.160;14.036;2022-10-30T00:14:07;11.60;99.90
57552;DHT22;43379;48.160;14.036;2022-10-30T00:16:33;11.60;99.90
57552;DHT22;43379;48.160;14.036;2022-10-30T00:18:59;11.60;99.90
57552;DHT22;43379;48.160;14.036;2022-10-30T00:21:25;11.70;99.90
57552;DHT22;43379;48.160;14.036;2022-10-30T00:23:52;11.70;99.90
57552;DHT22;43379;48.160;14.036;2022-10-30T00:26:19;11.70;99.90
57552;DHT22;43379;48.160;14.036;2022-10-30T00:28:51;11.70;99.90
57552;DHT22;43379;48.160;14.036;2022-10-30T00:31:17;11.70;99.90
57552;DHT22;43379;48.160;14.036;2022-10-30T00:33:43;11.70;99.90
57552;DHT22;43379;48.160;14.036;2022-10-30T00:36:09;11.70;99.90
57552;DHT22;43379;48.160;14.036;2022-10-30T00:38:34;11.70;99.90
57552;DHT22;43379;48.160;14.036;2022-10-30T00:41:00;11.70;99.90
57552;DHT22;43379;48.160;14.036;2022-10-30T00:43:37;11.70;99.90
57552;DHT22;43379;48.160;14.036;2022-10-30T00:48:57;11.70;99.90
57552;DHT22;43379;48.160;14.036;2022-10-30T00:51:24;11.70;99.90
57552;DHT22;43379;48.160;14.036;2022-10-30T00:53:51;11.70;99.90
57552;DHT22;43379;48.160;14.036;2022-10-30T00:56:19;11.70;99.90
57552;DHT22;43379;48.160;14.036;2022-10-30T00:59:08;11.60;99.90
57552;DHT22;43379;48.160;14.036;2022-10-30T01:01:37;11.60;99.90
57552;DHT22;43379;48.160;14.036;2022-10-30T01:04:05;11.60;99.90
57552;DHT22;43379;48.160;14.036;2022-10-30T01:06:34;11.60;99.90
57552;DHT22;43379;48.160;14.036;2022-10-30T01:09:01;11.60;99.90
57552;DHT22;43379;48.160;14.036;2022-10-30T01:11:27;11.60;99.90
57552;DHT22;43379;48.160;14.036;2022-10-30T01:13:55;11.60;99.90
57552;DHT22;43379;48.160;14.036;2022-10-30T01:21:39;11.50;99.90
57552;DHT22;43379;48.160;14.036;2022-10-30T01:24:25;11.50;99.90
57552;DHT22;43379;48.160;14.036;2022-10-30T01:27:20;11.50;99.90
57552;DHT22;43379;48.160;14.036;2022-10-30T01:32:48;11.40;99.90
57552;DHT22;43379;48.160;14.036;2022-10-30T01:35:26;11.40;99.90
57552;DHT22;43379;48.160;14.036;2022-10-30T01:38:25;11.50;99.90
57552;DHT22;43379;48.160;14.036;2022-10-30T01:40:52;11.50;99.90
57552;DHT22;43379;48.160;14.036;2022-10-30T01:43:18;11.40;99.90
57552;DHT22;43379;48.160;14.036;2022-10-30T01:57:37;11.40;99.90
57552;DHT22;43379;48.160;14.036;2022-10-30T02:00:07;11.50;99.90
57552;DHT22;43379;48.160;14.036;2022-10-30T02:02:34;11.50;99.90
57552;DHT22;43379;48.160;14.036;2022-10-30T02:05:00;11.50;99.90
57552;DHT22;43379;48.160;14.036;2022-10-30T02:07:26;11.50;99.90
57552;DHT22;43379;48.160;14.036;2022-10-30T02:09:53;11.50;99.90
57552;DHT22;43379;48.160;14.036;2022-10-30T02:12:19;11.50;99.90
57552;DHT22;43379;48.160;14.036;2022-10-30T02:14:50;11.50;99.90
57552;DHT22;43379;48.160;14.036;2022-10-30T02:17:17;11.60;99.90
57552;DHT22;43379;48.160;14.036;2022-10-30T02:19:43;11.50;99.90
57552;DHT22;43379;48.160;14.036;2022-10-30T02:22:09;11.50;99.90
57552;DHT22;43379;48.160;14.036;2022-10-30T02:24:36;11.60;99.90
57552;DHT22;43379;48.160;14.036;2022-10-30T02:27:01;11.50;99.90
57552;DHT22;43379;48.160;14.036;2022-10-30T02:29:28;11.50;99.90
57552;DHT22;43379;48.160;14.036;2022-10-30T02:31:53;11.40;99.90
57552;DHT22;43379;48.160;14.036;2022-10-30T02:34:19;11.50;99.90
57552;DHT22;43379;48.160;14.036;2022-10-30T02:36:45;11.50;99.90
57552;DHT22;43379;48.160;14.036;2022-10-30T02:39:11;11.50;99.90
57552;DHT22;43379;48.160;14.036;2022-10-30T02:41:37;11.50;99.90
57552;DHT22;43379;48.160;14.036;2022-10-30T02:44:03;11.40;99.90
57552;DHT22;43379;48.160;14.036;2022-10-30T02:46:29;11.40;99.90
57552;DHT22;43379;48.160;14.036;2022-10-30T02:48:55;11.40;99.90
57552;DHT22;43379;48.160;14.036;2022-10-30T02:51:20;11.50;99.90
57552;DHT22;43379;48.160;14.036;2022-10-30T02:53:46;11.50;99.90
57552;DHT22;43379;48.160;14.036;2022-10-30T02:56:13;11.50;99.90
57552;DHT22;43379;48.160;14.036;2022-10-30T02:58:39;11.50;99.90
57552;DHT22;43379;48.160;14.036;2022-10-30T03:01:17;11.50;99.90
57552;DHT22;43379;48.160;14.036;2022-10-30T03:03:43;11.50;99.90
57552;DHT22;43379;48.160;14.036;2022-10-30T03:06:11;11.40;99.90
57552;DHT22;43379;48.160;14.036;2022-10-30T03:08:37;11.40;99.90
57552;DHT22;43379;48.160;14.036;2022-10-30T03:11:08;11.30;99.90
57552;DHT22;43379;48.160;14.036;2022-10-30T03:13:36;11.40;99.90
57552;DHT22;43379;48.160;14.036;2022-10-30T03:16:28;11.30;99.90
57552;DHT22;43379;48.160;14.036;2022-10-30T03:18:58;11.20;99.90
57552;DHT22;43379;48.160;14.036;2022-10-30T03:21:25;11.20;99.90
57552;DHT22;43379;48.160;14.036;2022-10-30T03:23:51;11.20;99.90
57552;DHT22;43379;48.160;14.036;2022-10-30T03:26:18;11.20;99.90
57552;DHT22;43379;48.160;14.036;2022-10-30T03:28:44;11.20;99.90
57552;DHT22;43379;48.160;14.036;2022-10-30T03:33:57;11.20;99.90
57552;DHT22;43379;48.160;14.036;2022-10-30T03:36:24;11.20;99.90
57552;DHT22;43379;48.160;14.036;2022-10-30T03:38:50;11.20;99.90
57552;DHT22;43379;48.160;14.036;2022-10-30T03:41:16;11.20;99.90
57552;DHT22;43379;48.160;14.036;2022-10-30T03:43:41;11.20;99.90
57552;DHT22;43379;48.160;14.036;2022-10-30T03:46:08;11.20;99.90
57552;DHT22;43379;48.160;14.036;2022-10-30T03:48:35;11.10;99.90
57552;DHT22;43379;48.160;14.036;2022-10-30T03:51:01;11.20;99.90
57552;DHT22;43379;48.160;14.036;2022-10-30T03:53:28;11.10;99.90
57552;DHT22;43379;48.160;14.036;2022-10-30T03:56:00;11.10;99.90
57552;DHT22;43379;48.160;14.036;2022-10-30T03:58:27;11.10;99.90
57552;DHT22;43379;48.160;14.036;2022-10-30T04:00:52;11.10;99.90
57552;DHT22;43379;48.160;14.036;2022-10-30T04:03:18;11.10;99.90
57552;DHT22;43379;48.160;14.036;2022-10-30T04:05:44;11.10;99.90
57552;DHT22;43379;48.160;14.036;2022-10-30T04:08:11;11.10;99.90
57552;DHT22;43379;48.160;14.036;2022-10-30T04:10:47;11.10;99.90
57552;DHT22;43379;48.160;14.036;2022-10-30T04:13:15;11.20;99.90
57552;DHT22;43379;48.160;14.036;2022-10-30T04:15:41;11.30;99.90
57552;DHT22;43379;48.160;14.036;2022-10-30T04:18:10;11.30;99.90
57552;DHT22;43379;48.160;14.036;2022-10-30T04:20:36;11.40;99.90
57552;DHT22;43379;48.160;14.036;2022-10-30T04:23:03;11.40;99.90
57552;DHT22;43379;48.160;14.036;2022-10-30T04:25:30;11.30;99.90
57552;DHT22;43379;48.160;14.036;2022-10-30T04:27:57;11.40;99.90
57552;DHT22;43379;48.160;14.036;2022-10-30T04:30:23;11.40;99.90
57552;DHT22;43379;48.160;14.036;2022-10-30T04:32:55;11.30;99.90
57552;DHT22;43379;48.160;14.036;2022-10-30T04:35:24;11.40;99.90
57552;DHT22;43379;48.160;14.036;2022-10-30T04:37:53;11.40;99.90
57552;DHT22;43379;48.160;14.036;2022-10-30T04:40:20;11.40;99.90
57552;DHT22;43379;48.160;14.036;2022-10-30T04:42:46;11.30;99.90
57552;DHT22;43379;48.160;14.036;2022-10-30T04:45:12;11.30;99.90
57552;DHT22;43379;48.160;14.036;2022-10-30T04:47:37;11.40;99.90
57552;DHT22;43379;48.160;14.036;2022-10-30T04:50:03;11.30;99.90
57552;DHT22;43379;48.160;14.036;2022-10-30T04:52:29;11.40;99.90
57552;DHT22;43379;48.160;14.036;2022-10-30T04:54:55;11.30;99.90
57552;DHT22;43379;48.160;14.036;2022-10-30T04:57:20;11.30;99.90
57552;DHT22;43379;48.160;14.036;2022-10-30T04:59:46;11.30;99.90
57552;DHT22;43379;48.160;14.036;2022-10-30T05:02:12;11.20;99.90
57552;DHT22;43379;48.160;14.036;2022-10-30T05:04:37;11.30;99.90
57552;DHT22;43379;48.160;14.036;2022-10-30T05:07:03;11.30;99.90
57552;DHT22;43379;48.160;14.036;2022-10-30T05:09:29;11.40;99.90
57552;DHT22;43379;48.160;14.036;2022-10-30T05:11:54;11.40;99.90
57552;DHT22;43379;48.160;14.036;2022-10-30T05:14:20;11.40;99.90
57552;DHT22;43379;48.160;14.036;2022-10-30T05:16:46;11.40;99.90
57552;DHT22;43379;48.160;14.036;2022-10-30T05:19:11;11.40;99.90
57552;DHT22;43379;48.160;14.036;2022-10-30T05:21:37;11.40;99.90
57552;DHT22;43379;48.160;14.036;2022-10-30T05:24:02;11.50;99.90
57552;DHT22;43379;48.160;14.036;2022-10-30T05:26:28;11.50;99.90
57552;DHT22;43379;48.160;14.036;2022-10-30T05:28:54;11.50;99.90
57552;DHT22;43379;48.160;14.036;2022-10-30T05:31:20;11.50;99.90
57552;DHT22;43379;48.160;14.036;2022-10-30T05:33:45;11.50;99.90
57552;DHT22;43379;48.160;14.036;2022-10-30T05:36:11;11.40;99.90
57552;DHT22;43379;48.160;14.036;2022-10-30T05:38:37;11.40;99.90
57552;DHT22;43379;48.160;14.036;2022-10-30T05:41:02;11.30;99.90
57552;DHT22;43379;48.160;14.036;2022-10-30T05:43:28;11.30;99.90
57552;DHT22;43379;48.160;14.036;2022-10-30T05:45:54;11.20;99.90
57552;DHT22;43379;48.160;14.036;2022-10-30T05:48:19;11.10;99.90
57552;DHT22;43379;48.160;14.036;2022-10-30T05:50:45;11.20;99.90
57552;DHT22;43379;48.160;14.036;2022-10-30T05:53:11;11.10;99.90
57552;DHT22;43379;48.160;14.036;2022-10-30T05:55:36;11.10;99.90
57552;DHT22;43379;48.160;14.036;2022-10-30T05:58:03;11.10;99.90
57552;DHT22;43379;48.160;14.036;2022-10-30T06:00:32;11.00;99.90
57552;DHT22;43379;48.160;14.036;2022-10-30T06:03:03;11.00;99.90
57552;DHT22;43379;48.160;14.036;2022-10-30T06:05:30;11.00;99.90
57552;DHT22;43379;48.160;14.036;2022-10-30T06:07:56;11.00;99.90
57552;DHT22;43379;48.160;14.036;2022-10-30T06:10:22;11.00;99.90
57552;DHT22;43379;48.160;14.036;2022-10-30T06:12:59;11.00;99.90
57552;DHT22;43379;48.160;14.036;2022-10-30T06:15:25;11.00;99.90
57552;DHT22;43379;48.160;14.036;2022-10-30T06:17:52;11.20;99.90
57552;DHT22;43379;48.160;14.036;2022-10-30T06:20:19;11.20;99.90
57552;DHT22;43379;48.160;14.036;2022-10-30T06:25:20;11.40;99.90
57552;DHT22;43379;48.160;14.036;2022-10-30T06:27:46;11.40;99.90
57552;DHT22;43379;48.160;14.036;2022-10-30T06:30:11;11.40;99.90
57552;DHT22;43379;48.160;14.036;2022-10-30T06:32:37;11.50;99.90
57552;DHT22;43379;48.160;14.036;2022-10-30T06:35:03;11.50;99.90
57552;DHT22;43379;48.160;14.036;2022-10-30T06:37:29;11.50;99.90
57552;DHT22;43379;48.160;14.036;2022-10-30T06:39:54;11.50;99.90
57552;DHT22;43379;48.160;14.036;2022-10-30T06:42:20;11.50;99.90
57552;DHT22;43379;48.160;14.036;2022-10-30T06:44:46;11.60;99.90
57552;DHT22;43379;48.160;14.036;2022-10-30T06:47:13;11.60;99.90
57552;DHT22;43379;48.160;14.036;2022-10-30T06:49:39;11.60;99.90
57552;DHT22;43379;48.160;14.036;2022-10-30T06:52:05;11.50;99.90
57552;DHT22;43379;48.160;14.036;2022-10-30T06:54:30;11.50;99.90
57552;DHT22;43379;48.160;14.036;2022-10-30T06:56:56;11.50;99.90
57552;DHT22;43379;48.160;14.036;2022-10-30T06:59:22;11.50;99.90
57552;DHT22;43379;48.160;14.036;2022-10-30T07:01:48;11.50;99.90
57552;DHT22;43379;48.160;14.036;2022-10-30T07:04:13;11.60;99.90
57552;DHT22;43379;48.160;14.036;2022-10-30T07:06:39;11.70;99.90
57552;DHT22;43379;48.160;14.036;2022-10-30T07:09:05;11.70;99.90
57552;DHT22;43379;48.160;14.036;2022-10-30T07:11:31;11.70;99.90
57552;DHT22;43379;48.160;14.036;2022-10-30T07:13:56;11.70;99.90
57552;DHT22;43379;48.160;14.036;2022-10-30T07:16:22;11.70;99.90
57552;DHT22;43379;48.160;14.036;2022-10-30T07:18:48;11.70;99.90
57552;DHT22;43379;48.160;14.036;2022-10-30T07:21:13;11.70;99.90
57552;DHT22;43379;48.160;14.036;2022-10-30T07:23:39;11.70;99.90
57552;DHT22;43379;48.160;14.036;2022-10-30T07:26:04;11.80;99.90
57552;DHT22;43379;48.160;14.036;2022-10-30T07:28:32;11.90;99.90
57552;DHT22;43379;48.160;14.036;2022-10-30T07:30:58;11.90;99.90
57552;DHT22;43379;48.160;14.036;2022-10-30T07:33:23;12.00;99.90
57552;DHT22;43379;48.160;14.036;2022-10-30T07:35:49;12.00;99.90
57552;DHT22;43379;48.160;14.036;2022-10-30T07:38:14;11.90;99.90
57552;DHT22;43379;48.160;14.036;2022-10-30T07:40:42;11.90;99.90
57552;DHT22;43379;48.160;14.036;2022-10-30T07:43:08;12.10;99.90
57552;DHT22;43379;48.160;14.036;2022-10-30T07:45:38;12.10;99.90
57552;DHT22;43379;48.160;14.036;2022-10-30T07:48:04;12.20;99.90
57552;DHT22;43379;48.160;14.036;2022-10-30T07:50:30;12.20;99.90
57552;DHT22;43379;48.160;14.036;2022-10-30T07:52:56;12.20;99.90
57552;DHT22;43379;48.160;14.036;2022-10-30T07:55:22;12.30;99.90
57552;DHT22;43379;48.160;14.036;2022-10-30T07:57:48;12.30;99.90
57552;DHT22;43379;48.160;14.036;2022-10-30T08:00:15;12.30;99.90
57552;DHT22;43379;48.160;14.036;2022-10-30T08:02:41;12.20;99.90
57552;DHT22;43379;48.160;14.036;2022-10-30T08:05:08;12.20;99.90
57552;DHT22;43379;48.160;14.036;2022-10-30T08:07:35;12.30;99.90
57552;DHT22;43379;48.160;14.036;2022-10-30T08:10:02;12.20;99.90
57552;DHT22;43379;48.160;14.036;2022-10-30T08:12:28;12.40;99.90
57552;DHT22;43379;48.160;14.036;2022-10-30T08:14:53;12.40;99.90
57552;DHT22;43379;48.160;14.036;2022-10-30T08:17:19;12.40;99.90
57552;DHT22;43379;48.160;14.036;2022-10-30T08:19:45;12.40;99.90
57552;DHT22;43379;48.160;14.036;2022-10-30T08:22:11;12.50;99.90
57552;DHT22;43379;48.160;14.036;2022-10-30T08:24:37;12.60;99.90
57552;DHT22;43379;48.160;14.036;2022-10-30T08:27:03;12.70;99.90
57552;DHT22;43379;48.160;14.036;2022-10-30T08:29:29;12.70;99.90
57552;DHT22;43379;48.160;14.036;2022-10-30T08:31:55;12.70;99.90
57552;DHT22;43379;48.160;14.036;2022-10-30T08:34:20;12.70;99.90
57552;DHT22;43379;48.160;14.036;2022-10-30T08:36:50;12.60;99.90
57552;DHT22;43379;48.160;14.036;2022-10-30T08:39:16;12.70;99.90
57552;DHT22;43379;48.160;14.036;2022-10-30T08:41:43;12.90;99.90
57552;DHT22;43379;48.160;14.036;2022-10-30T08:44:09;12.90;99.90
57552;DHT22;43379;48.160;14.036;2022-10-30T08:46:34;12.90;99.90
57552;DHT22;43379;48.160;14.036;2022-10-30T08:49:00;13.00;99.90
57552;DHT22;43379;48.160;14.036;2022-10-30T08:51:26;13.00;99.90
57552;DHT22;43379;48.160;14.036;2022-10-30T08:53:52;13.20;99.90
57552;DHT22;43379;48.160;14.036;2022-10-30T08:56:18;13.20;99.90
57552;DHT22;43379;48.160;14.036;2022-10-30T08:58:43;13.30;99.90
57552;DHT22;43379;48.160;14.036;2022-10-30T09:01:09;13.40;99.90
57552;DHT22;43379;48.160;14.036;2022-10-30T09:03:35;13.50;99.90
57552;DHT22;43379;48.160;14.036;2022-10-30T09:06:01;13.60;99.90
57552;DHT22;43379;48.160;14.036;2022-10-30T09:08:27;13.70;99.90
57552;DHT22;43379;48.160;14.036;2022-10-30T09:10:57;13.90;99.90
57552;DHT22;43379;48.160;14.036;2022-10-30T09:13:23;14.20;99.90
57552;DHT22;43379;48.160;14.036;2022-10-30T09:15:49;14.40;99.90
57552;DHT22;43379;48.160;14.036;2022-10-30T09:18:15;14.70;99.90
57552;DHT22;43379;48.160;14.036;2022-10-30T09:20:40;14.90;99.90
57552;DHT22;43379;48.160;14.036;2022-10-30T09:23:06;15.10;99.90
57552;DHT22;43379;48.160;14.036;2022-10-30T09:25:32;15.30;99.90
57552;DHT22;43379;48.160;14.036;2022-10-30T09:27:58;15.40;99.90
57552;DHT22;43379;48.160;14.036;2022-10-30T09:30:23;15.80;99.90
57552;DHT22;43379;48.160;14.036;2022-10-30T09:32:56;16.10;99.90
57552;DHT22;43379;48.160;14.036;2022-10-30T09:35:23;16.40;99.90
57552;DHT22;43379;48.160;14.036;2022-10-30T09:37:49;16.90;99.90
57552;DHT22;43379;48.160;14.036;2022-10-30T09:42:58;17.90;99.90
57552;DHT22;43379;48.160;14.036;2022-10-30T09:51:32;19.20;99.90
57552;DHT22;43379;48.160;14.036;2022-10-30T10:07:03;19.50;99.90
57552;DHT22;43379;48.160;14.036;2022-10-30T10:09:33;19.40;99.90
57552;DHT22;43379;48.160;14.036;2022-10-30T10:12:07;19.40;99.90
57552;DHT22;43379;48.160;14.036;2022-10-30T10:14:38;19.30;99.90
57552;DHT22;43379;48.160;14.036;2022-10-30T10:17:11;19.20;99.90
57552;DHT22;43379;48.160;14.036;2022-10-30T10:19:54;19.20;99.90
57552;DHT22;43379;48.160;14.036;2022-10-30T10:22:24;19.20;99.90
57552;DHT22;43379;48.160;14.036;2022-10-30T10:24:52;19.20;99.90
57552;DHT22;43379;48.160;14.036;2022-10-30T10:27:36;19.30;99.90
57552;DHT22;43379;48.160;14.036;2022-10-30T10:30:23;19.30;99.90
57552;DHT22;43379;48.160;14.036;2022-10-30T10:43:30;19.60;99.90
57552;DHT22;43379;48.160;14.036;2022-10-30T10:52:19;19.80;99.90
57552;DHT22;43379;48.160;14.036;2022-10-30T10:54:58;19.90;99.90
57552;DHT22;43379;48.160;14.036;2022-10-30T10:57:36;19.80;99.90
57552;DHT22;43379;48.160;14.036;2022-10-30T11:00:12;19.80;99.90
57552;DHT22;43379;48.160;14.036;2022-10-30T11:05:32;20.00;99.90
57552;DHT22;43379;48.160;14.036;2022-10-30T11:08:10;19.90;99.90
57552;DHT22;43379;48.160;14.036;2022-10-30T11:10:37;20.00;99.90
57552;DHT22;43379;48.160;14.036;2022-10-30T11:13:02;20.00;99.90
57552;DHT22;43379;48.160;14.036;2022-10-30T11:18:08;20.10;99.90
57552;DHT22;43379;48.160;14.036;2022-10-30T11:23:40;20.20;99.90
57552;DHT22;43379;48.160;14.036;2022-10-30T11:31:25;20.00;99.90
57552;DHT22;43379;48.160;14.036;2022-10-30T11:36:52;20.20;99.90
57552;DHT22;43379;48.160;14.036;2022-10-30T11:39:20;20.30;99.90
57552;DHT22;43379;48.160;14.036;2022-10-30T11:44:31;20.30;99.90
57552;DHT22;43379;48.160;14.036;2022-10-30T11:46:57;20.10;99.90
57552;DHT22;43379;48.160;14.036;2022-10-30T11:49:45;20.20;99.90
57552;DHT22;43379;48.160;14.036;2022-10-30T11:52:14;20.20;99.90
57552;DHT22;43379;48.160;14.036;2022-10-30T11:54:44;20.30;99.90
57552;DHT22;43379;48.160;14.036;2022-10-30T11:59:59;20.40;99.90
57552;DHT22;43379;48.160;14.036;2022-10-30T12:02:28;20.40;99.90
57552;DHT22;43379;48.160;14.036;2022-10-30T12:05:01;20.40;99.90
57552;DHT22;43379;48.160;14.036;2022-10-30T12:07:32;20.40;99.90
57552;DHT22;43379;48.160;14.036;2022-10-30T12:09:57;20.40;99.90
57552;DHT22;43379;48.160;14.036;2022-10-30T12:12:28;20.50;99.90
57552;DHT22;43379;48.160;14.036;2022-10-30T12:17:38;20.50;99.90
57552;DHT22;43379;48.160;14.036;2022-10-30T12:20:06;20.40;99.90
57552;DHT22;43379;48.160;14.036;2022-10-30T12:22:33;20.40;99.90
57552;DHT22;43379;48.160;14.036;2022-10-30T12:25:02;20.40;99.90
57552;DHT22;43379;48.160;14.036;2022-10-30T12:27:31;20.40;99.90
57552;DHT22;43379;48.160;14.036;2022-10-30T12:30:09;20.50;99.90
57552;DHT22;43379;48.160;14.036;2022-10-30T12:32:50;20.50;99.90
57552;DHT22;43379;48.160;14.036;2022-10-30T12:35:38;20.50;99.90
57552;DHT22;43379;48.160;14.036;2022-10-30T12:38:10;20.40;99.90
57552;DHT22;43379;48.160;14.036;2022-10-30T12:40:41;20.40;99.90
57552;DHT22;43379;48.160;14.036;2022-10-30T12:43:19;20.40;99.90
57552;DHT22;43379;48.160;14.036;2022-10-30T12:45:49;20.40;99.90
57552;DHT22;43379;48.160;14.036;2022-10-30T12:51:13;20.50;99.90
57552;DHT22;43379;48.160;14.036;2022-10-30T12:56:45;20.50;99.90
57552;DHT22;43379;48.160;14.036;2022-10-30T13:01:52;20.30;99.90
57552;DHT22;43379;48.160;14.036;2022-10-30T13:04:34;20.30;99.90
57552;DHT22;43379;48.160;14.036;2022-10-30T13:07:08;20.40;99.90
57552;DHT22;43379;48.160;14.036;2022-10-30T13:10:04;20.40;99.90
57552;DHT22;43379;48.160;14.036;2022-10-30T13:12:37;20.40;99.90
57552;DHT22;43379;48.160;14.036;2022-10-30T13:15:24;20.50;99.90
57552;DHT22;43379;48.160;14.036;2022-10-30T13:17:51;20.50;99.90
57552;DHT22;43379;48.160;14.036;2022-10-30T13:20:17;20.50;99.90
57552;DHT22;43379;48.160;14.036;2022-10-30T13:22:51;20.50;99.90
57552;DHT22;43379;48.160;14.036;2022-10-30T13:25:30;20.50;99.90
57552;DHT22;43379;48.160;14.036;2022-10-30T13:30:38;20.50;99.90
57552;DHT22;43379;48.160;14.036;2022-10-30T13:33:26;20.50;99.90
57552;DHT22;43379;48.160;14.036;2022-10-30T13:36:01;20.40;99.90
57552;DHT22;43379;48.160;14.036;2022-10-30T13:38:46;20.40;99.90
57552;DHT22;43379;48.160;14.036;2022-10-30T13:44:34;20.30;99.90
57552;DHT22;43379;48.160;14.036;2022-10-30T13:47:14;20.20;99.90
57552;DHT22;43379;48.160;14.036;2022-10-30T13:52:20;20.00;99.90
57552;DHT22;43379;48.160;14.036;2022-10-30T14:11:24;20.00;99.90
57552;DHT22;43379;48.160;14.036;2022-10-30T14:16:44;19.90;99.90
57552;DHT22;43379;48.160;14.036;2022-10-30T14:19:12;19.90;99.90
57552;DHT22;43379;48.160;14.036;2022-10-30T14:21:40;19.80;99.90
57552;DHT22;43379;48.160;14.036;2022-10-30T14:26:54;19.60;99.90
57552;DHT22;43379;48.160;14.036;2022-10-30T14:31:58;19.60;99.90
57552;DHT22;43379;48.160;14.036;2022-10-30T14:35:06;19.60;99.90
57552;DHT22;43379;48.160;14.036;2022-10-30T14:40:35;19.60;99.90
57552;DHT22;43379;48.160;14.036;2022-10-30T14:45:54;19.50;99.90
57552;DHT22;43379;48.160;14.036;2022-10-30T14:48:21;19.40;99.90
57552;DHT22;43379;48.160;14.036;2022-10-30T14:51:34;19.40;99.90
57552;DHT22;43379;48.160;14.036;2022-10-30T14:56:46;19.20;99.90
57552;DHT22;43379;48.160;14.036;2022-10-30T15:04:41;19.00;99.90
57552;DHT22;43379;48.160;14.036;2022-10-30T15:07:26;18.90;99.90
57552;DHT22;43379;48.160;14.036;2022-10-30T15:15:34;18.70;99.90
57552;DHT22;43379;48.160;14.036;2022-10-30T15:18:10;18.70;99.90
57552;DHT22;43379;48.160;14.036;2022-10-30T15:20:40;18.60;99.90
57552;DHT22;43379;48.160;14.036;2022-10-30T15:23:26;18.60;99.90
57552;DHT22;43379;48.160;14.036;2022-10-30T15:25:56;18.50;99.90
57552;DHT22;43379;48.160;14.036;2022-10-30T15:28:26;18.50;99.90
57552;DHT22;43379;48.160;14.036;2022-10-30T15:31:13;18.40;99.90
57552;DHT22;43379;48.160;14.036;2022-10-30T15:33:44;18.30;99.90
57552;DHT22;43379;48.160;14.036;2022-10-30T15:36:40;18.20;99.90
57552;DHT22;43379;48.160;14.036;2022-10-30T15:39:12;18.10;99.90
57552;DHT22;43379;48.160;14.036;2022-10-30T15:41:57;18.10;99.90
57552;DHT22;43379;48.160;14.036;2022-10-30T15:44:26;18.00;99.90
57552;DHT22;43379;48.160;14.036;2022-10-30T15:46:54;17.80;99.90
57552;DHT22;43379;48.160;14.036;2022-10-30T15:49:35;17.70;99.90
57552;DHT22;43379;48.160;14.036;2022-10-30T15:52:11;17.70;99.90
57552;DHT22;43379;48.160;14.036;2022-10-30T15:54:40;17.60;99.90
57552;DHT22;43379;48.160;14.036;2022-10-30T15:57:14;17.50;99.90
57552;DHT22;43379;48.160;14.036;2022-10-30T15:59:49;17.40;99.90
57552;DHT22;43379;48.160;14.036;2022-10-30T16:02:23;17.30;99.90
57552;DHT22;43379;48.160;14.036;2022-10-30T16:04:51;17.20;99.90
57552;DHT22;43379;48.160;14.036;2022-10-30T16:07:23;17.10;99.90
57552;DHT22;43379;48.160;14.036;2022-10-30T16:09:59;17.00;99.90
57552;DHT22;43379;48.160;14.036;2022-10-30T16:12:30;16.90;99.90
57552;DHT22;43379;48.160;14.036;2022-10-30T16:15:00;16.80;99.90
57552;DHT22;43379;48.160;14.036;2022-10-30T16:17:27;16.80;99.90
57552;DHT22;43379;48.160;14.036;2022-10-30T16:20:00;16.80;99.90
57552;DHT22;43379;48.160;14.036;2022-10-30T16:22:30;16.70;99.90
57552;DHT22;43379;48.160;14.036;2022-10-30T16:24:58;16.60;99.90
57552;DHT22;43379;48.160;14.036;2022-10-30T16:27:24;16.50;99.90
57552;DHT22;43379;48.160;14.036;2022-10-30T16:29:54;16.40;99.90
57552;DHT22;43379;48.160;14.036;2022-10-30T16:32:24;16.40;99.90
57552;DHT22;43379;48.160;14.036;2022-10-30T16:34:55;16.30;99.90
57552;DHT22;43379;48.160;14.036;2022-10-30T16:37:36;16.20;99.90
57552;DHT22;43379;48.160;14.036;2022-10-30T16:42:38;16.10;99.90
57552;DHT22;43379;48.160;14.036;2022-10-30T16:47:57;16.00;99.90
57552;DHT22;43379;48.160;14.036;2022-10-30T16:50:33;16.00;99.90
57552;DHT22;43379;48.160;14.036;2022-10-30T16:53:28;15.90;99.90
57552;DHT22;43379;48.160;14.036;2022-10-30T16:55:55;15.80;99.90
57552;DHT22;43379;48.160;14.036;2022-10-30T16:58:24;15.80;99.90
57552;DHT22;43379;48.160;14.036;2022-10-30T17:00:55;15.80;99.90
57552;DHT22;43379;48.160;14.036;2022-10-30T17:03:27;15.70;99.90
57552;DHT22;43379;48.160;14.036;2022-10-30T17:08:52;15.60;99.90
57552;DHT22;43379;48.160;14.036;2022-10-30T17:11:32;15.60;99.90
57552;DHT22;43379;48.160;14.036;2022-10-30T17:14:00;15.50;99.90
57552;DHT22;43379;48.160;14.036;2022-10-30T17:16:28;15.50;99.90
57552;DHT22;43379;48.160;14.036;2022-10-30T17:18:57;15.40;99.90
57552;DHT22;43379;48.160;14.036;2022-10-30T17:21:28;15.40;99.90
57552;DHT22;43379;48.160;14.036;2022-10-30T17:23:58;15.30;99.90
57552;DHT22;43379;48.160;14.036;2022-10-30T17:26:28;15.20;99.90
57552;DHT22;43379;48.160;14.036;2022-10-30T17:28:56;15.30;99.90
57552;DHT22;43379;48.160;14.036;2022-10-30T17:34:16;15.20;99.90
57552;DHT22;43379;48.160;14.036;2022-10-30T17:36:43;15.10;99.90
57552;DHT22;43379;48.160;14.036;2022-10-30T17:39:09;15.10;99.90
57552;DHT22;43379;48.160;14.036;2022-10-30T17:41:35;15.00;99.90
57552;DHT22;43379;48.160;14.036;2022-10-30T17:44:01;14.90;99.90
57552;DHT22;43379;48.160;14.036;2022-10-30T17:46:27;14.90;99.90
57552;DHT22;43379;48.160;14.036;2022-10-30T17:48:53;14.90;99.90
57552;DHT22;43379;48.160;14.036;2022-10-30T17:51:20;14.80;99.90
57552;DHT22;43379;48.160;14.036;2022-10-30T17:53:46;14.80;99.90
57552;DHT22;43379;48.160;14.036;2022-10-30T17:56:32;14.70;99.90
57552;DHT22;43379;48.160;14.036;2022-10-30T17:58:58;14.60;99.90
57552;DHT22;43379;48.160;14.036;2022-10-30T18:01:25;14.60;99.90
57552;DHT22;43379;48.160;14.036;2022-10-30T18:03:52;14.60;99.90
57552;DHT22;43379;48.160;14.036;2022-10-30T18:06:24;14.50;99.90
57552;DHT22;43379;48.160;14.036;2022-10-30T18:08:50;14.50;99.90
57552;DHT22;43379;48.160;14.036;2022-10-30T18:11:17;14.50;99.90
57552;DHT22;43379;48.160;14.036;2022-10-30T18:13:45;14.50;99.90